sensor_id;sensor_type;location;lat;lon;timestamp;temperature;humidity
41722;DHT22;27407;24.142;-110.310;2023-06-05T00:00:18;39.00;57.90
41722;DHT22;27407;24.142;-110.310;2023-06-05T00:02:44;39.20;57.70
41722;DHT22;27407;24.142;-110.310;2023-06-05T00:05:12;39.10;58.20
41722;DHT22;27407;24.142;-110.310;2023-06-05T00:07:39;39.40;58.70
41722;DHT22;27407;24.142;-110.310;2023-06-05T00:10:07;39.60;58.10
41722;DHT22;27407;24.142;-110.310;2023-06-05T00:12:34;39.90;58.10
41722;DHT22;27407;24.142;-110.310;2023-06-05T00:15:01;39.60;58.10
41722;DHT22;27407;24.142;-110.310;2023-06-05T00:17:28;39.30;59.00
41722;DHT22;27407;24.142;-110.310;2023-06-05T00:19:56;39.40;58.70
41722;DHT22;27407;24.142;-110.310;2023-06-05T00:22:29;39.20;58.90
41722;DHT22;27407;24.142;-110.310;2023-06-05T00:24:59;39.40;59.10
41722;DHT22;27407;24.142;-110.310;2023-06-05T00:27:27;39.00;59.20
41722;DHT22;27407;24.142;-110.310;2023-06-05T00:29:54;39.10;59.20
41722;DHT22;27407;24.142;-110.310;2023-06-05T00:32:21;38.80;59.80
41722;DHT22;27407;24.142;-110.310;2023-06-05T00:34:47;38.40;60.00
41722;DHT22;27407;24.142;-110.310;2023-06-05T00:37:16;38.40;60.50
41722;DHT22;27407;24.142;-110.310;2023-06-05T00:39:42;38.10;60.90
41722;DHT22;27407;24.142;-110.310;2023-06-05T00:42:09;38.00;60.80
41722;DHT22;27407;24.142;-110.310;2023-06-05T00:44:36;37.70;61.40
41722;DHT22;27407;24.142;-110.310;2023-06-05T00:47:03;37.20;62.40
41722;DHT22;27407;24.142;-110.310;2023-06-05T00:49:31;37.10;63.00
41722;DHT22;27407;24.142;-110.310;2023-06-05T00:51:58;37.10;63.20
41722;DHT22;27407;24.142;-110.310;2023-06-05T00:54:25;36.80;63.80
41722;DHT22;27407;24.142;-110.310;2023-06-05T00:56:52;36.80;64.10
41722;DHT22;27407;24.142;-110.310;2023-06-05T00:59:19;36.70;64.60
41722;DHT22;27407;24.142;-110.310;2023-06-05T01:01:46;36.50;65.30
41722;DHT22;27407;24.142;-110.310;2023-06-05T01:04:16;36.50;65.40
41722;DHT22;27407;24.142;-110.310;2023-06-05T01:06:43;36.10;65.80
41722;DHT22;27407;24.142;-110.310;2023-06-05T01:09:10;35.90;66.10
41722;DHT22;27407;24.142;-110.310;2023-06-05T01:11:47;35.60;66.90
41722;DHT22;27407;24.142;-110.310;2023-06-05T01:14:23;35.20;67.60
41722;DHT22;27407;24.142;-110.310;2023-06-05T01:16:51;34.90;68.90
41722;DHT22;27407;24.142;-110.310;2023-06-05T01:19:23;34.60;70.20
41722;DHT22;27407;24.142;-110.310;2023-06-05T01:21:54;34.30;70.60
41722;DHT22;27407;24.142;-110.310;2023-06-05T01:24:21;33.80;71.50
41722;DHT22;27407;24.142;-110.310;2023-06-05T01:32:59;32.30;74.50
41722;DHT22;27407;24.142;-110.310;2023-06-05T01:35:31;31.80;76.00
41722;DHT22;27407;24.142;-110.310;2023-06-05T01:38:02;31.60;76.60
41722;DHT22;27407;24.142;-110.310;2023-06-05T01:40:32;31.20;78.50
41722;DHT22;27407;24.142;-110.310;2023-06-05T01:43:01;31.00;78.50
41722;DHT22;27407;24.142;-110.310;2023-06-05T01:45:29;30.90;78.90
41722;DHT22;27407;24.142;-110.310;2023-06-05T01:47:56;30.80;79.40
41722;DHT22;27407;24.142;-110.310;2023-06-05T01:50:24;30.10;80.80
41722;DHT22;27407;24.142;-110.310;2023-06-05T01:52:51;29.70;82.10
41722;DHT22;27407;24.142;-110.310;2023-06-05T01:55:20;29.30;83.20
41722;DHT22;27407;24.142;-110.310;2023-06-05T01:57:50;29.00;84.00
41722;DHT22;27407;24.142;-110.310;2023-06-05T02:00:17;28.90;84.50
41722;DHT22;27407;24.142;-110.310;2023-06-05T02:02:47;28.90;84.90
41722;DHT22;27407;24.142;-110.310;2023-06-05T02:05:16;28.70;85.40
41722;DHT22;27407;24.142;-110.310;2023-06-05T02:07:47;28.50;86.10
41722;DHT22;27407;24.142;-110.310;2023-06-05T02:10:15;28.50;86.40
41722;DHT22;27407;24.142;-110.310;2023-06-05T02:12:45;28.30;87.00
41722;DHT22;27407;24.142;-110.310;2023-06-05T02:15:12;28.10;87.80
41722;DHT22;27407;24.142;-110.310;2023-06-05T02:17:44;28.10;88.30
41722;DHT22;27407;24.142;-110.310;2023-06-05T02:20:17;28.00;88.80
41722;DHT22;27407;24.142;-110.310;2023-06-05T02:22:44;27.80;89.60
41722;DHT22;27407;24.142;-110.310;2023-06-05T02:25:11;27.70;90.30
41722;DHT22;27407;24.142;-110.310;2023-06-05T02:27:38;27.50;90.90
41722;DHT22;27407;24.142;-110.310;2023-06-05T02:30:05;27.40;91.50
41722;DHT22;27407;24.142;-110.310;2023-06-05T02:32:33;27.30;92.00
41722;DHT22;27407;24.142;-110.310;2023-06-05T02:34:59;27.00;92.50
41722;DHT22;27407;24.142;-110.310;2023-06-05T02:37:27;26.70;93.00
41722;DHT22;27407;24.142;-110.310;2023-06-05T02:39:54;26.60;93.40
41722;DHT22;27407;24.142;-110.310;2023-06-05T02:42:21;26.60;93.80
41722;DHT22;27407;24.142;-110.310;2023-06-05T02:44:48;26.60;94.20
41722;DHT22;27407;24.142;-110.310;2023-06-05T02:47:15;26.50;94.20
41722;DHT22;27407;24.142;-110.310;2023-06-05T02:49:42;26.30;94.40
41722;DHT22;27407;24.142;-110.310;2023-06-05T02:52:08;26.20;94.80
41722;DHT22;27407;24.142;-110.310;2023-06-05T02:54:35;26.30;95.10
41722;DHT22;27407;24.142;-110.310;2023-06-05T02:57:02;26.20;95.60
41722;DHT22;27407;24.142;-110.310;2023-06-05T02:59:32;26.30;95.90
41722;DHT22;27407;24.142;-110.310;2023-06-05T03:01:59;26.10;96.20
41722;DHT22;27407;24.142;-110.310;2023-06-05T03:04:26;26.00;96.80
41722;DHT22;27407;24.142;-110.310;2023-06-05T03:06:53;25.90;97.20
41722;DHT22;27407;24.142;-110.310;2023-06-05T03:09:22;25.90;97.50
41722;DHT22;27407;24.142;-110.310;2023-06-05T03:11:49;25.80;98.00
41722;DHT22;27407;24.142;-110.310;2023-06-05T03:14:16;25.60;98.60
41722;DHT22;27407;24.142;-110.310;2023-06-05T03:16:43;25.60;99.20
41722;DHT22;27407;24.142;-110.310;2023-06-05T03:19:10;25.70;99.60
41722;DHT22;27407;24.142;-110.310;2023-06-05T03:21:37;25.60;99.80
41722;DHT22;27407;24.142;-110.310;2023-06-05T03:24:08;25.30;99.90
41722;DHT22;27407;24.142;-110.310;2023-06-05T03:26:35;25.30;99.90
41722;DHT22;27407;24.142;-110.310;2023-06-05T03:29:01;25.10;99.90
41722;DHT22;27407;24.142;-110.310;2023-06-05T03:31:28;24.90;99.90
41722;DHT22;27407;24.142;-110.310;2023-06-05T03:33:56;25.10;99.90
41722;DHT22;27407;24.142;-110.310;2023-06-05T03:36:24;24.70;99.90
41722;DHT22;27407;24.142;-110.310;2023-06-05T03:38:54;24.50;99.90
41722;DHT22;27407;24.142;-110.310;2023-06-05T03:41:22;24.60;99.90
41722;DHT22;27407;24.142;-110.310;2023-06-05T03:43:49;24.60;99.90
41722;DHT22;27407;24.142;-110.310;2023-06-05T03:46:16;24.50;99.90
41722;DHT22;27407;24.142;-110.310;2023-06-05T03:48:49;24.40;99.90
41722;DHT22;27407;24.142;-110.310;2023-06-05T03:51:16;24.40;99.90
41722;DHT22;27407;24.142;-110.310;2023-06-05T03:53:46;24.20;99.90
41722;DHT22;27407;24.142;-110.310;2023-06-05T03:56:21;24.30;99.90
41722;DHT22;27407;24.142;-110.310;2023-06-05T03:58:48;24.10;99.90
41722;DHT22;27407;24.142;-110.310;2023-06-05T04:01:14;23.90;99.90
41722;DHT22;27407;24.142;-110.310;2023-06-05T04:03:41;23.80;99.90
41722;DHT22;27407;24.142;-110.310;2023-06-05T04:06:08;23.60;99.90
41722;DHT22;27407;24.142;-110.310;2023-06-05T04:08:35;23.50;99.90
41722;DHT22;27407;24.142;-110.310;2023-06-05T04:11:01;23.50;99.90
41722;DHT22;27407;24.142;-110.310;2023-06-05T04:13:28;23.50;99.90
41722;DHT22;27407;24.142;-110.310;2023-06-05T04:15:55;23.50;99.90
41722;DHT22;27407;24.142;-110.310;2023-06-05T04:18:23;23.30;99.90
41722;DHT22;27407;24.142;-110.310;2023-06-05T04:20:50;23.30;99.90
41722;DHT22;27407;24.142;-110.310;2023-06-05T04:23:17;23.30;99.90
41722;DHT22;27407;24.142;-110.310;2023-06-05T04:25:44;23.10;99.90
41722;DHT22;27407;24.142;-110.310;2023-06-05T04:28:12;23.00;99.90
41722;DHT22;27407;24.142;-110.310;2023-06-05T04:30:38;22.90;99.90
41722;DHT22;27407;24.142;-110.310;2023-06-05T04:33:05;22.90;99.90
41722;DHT22;27407;24.142;-110.310;2023-06-05T04:35:32;22.80;99.90
41722;DHT22;27407;24.142;-110.310;2023-06-05T04:37:59;22.70;99.90
41722;DHT22;27407;24.142;-110.310;2023-06-05T04:40:26;22.60;99.90
41722;DHT22;27407;24.142;-110.310;2023-06-05T04:42:53;22.60;99.90
41722;DHT22;27407;24.142;-110.310;2023-06-05T04:45:20;22.60;99.90
41722;DHT22;27407;24.142;-110.310;2023-06-05T04:47:47;22.70;99.90
41722;DHT22;27407;24.142;-110.310;2023-06-05T04:50:25;22.60;99.90
41722;DHT22;27407;24.142;-110.310;2023-06-05T04:52:52;22.50;99.90
41722;DHT22;27407;24.142;-110.310;2023-06-05T04:55:21;22.40;99.90
41722;DHT22;27407;24.142;-110.310;2023-06-05T04:57:48;22.40;99.90
41722;DHT22;27407;24.142;-110.310;2023-06-05T05:00:17;22.40;99.90
41722;DHT22;27407;24.142;-110.310;2023-06-05T05:02:45;22.30;99.90
41722;DHT22;27407;24.142;-110.310;2023-06-05T05:05:12;22.40;99.90
41722;DHT22;27407;24.142;-110.310;2023-06-05T05:07:42;22.30;99.90
41722;DHT22;27407;24.142;-110.310;2023-06-05T05:10:10;22.20;99.90
41722;DHT22;27407;24.142;-110.310;2023-06-05T05:12:37;22.10;99.90
41722;DHT22;27407;24.142;-110.310;2023-06-05T05:15:05;22.10;99.90
41722;DHT22;27407;24.142;-110.310;2023-06-05T05:17:32;22.20;99.90
41722;DHT22;27407;24.142;-110.310;2023-06-05T05:19:58;22.20;99.90
41722;DHT22;27407;24.142;-110.310;2023-06-05T05:22:26;22.20;99.90
41722;DHT22;27407;24.142;-110.310;2023-06-05T05:24:53;21.90;99.90
41722;DHT22;27407;24.142;-110.310;2023-06-05T05:27:20;22.00;99.90
41722;DHT22;27407;24.142;-110.310;2023-06-05T05:29:46;22.00;99.90
41722;DHT22;27407;24.142;-110.310;2023-06-05T05:32:13;22.00;99.90
41722;DHT22;27407;24.142;-110.310;2023-06-05T05:34:40;21.80;99.90
41722;DHT22;27407;24.142;-110.310;2023-06-05T05:37:06;21.70;99.90
41722;DHT22;27407;24.142;-110.310;2023-06-05T05:39:33;21.70;99.90
41722;DHT22;27407;24.142;-110.310;2023-06-05T05:42:00;21.60;99.90
41722;DHT22;27407;24.142;-110.310;2023-06-05T05:44:28;21.80;99.90
41722;DHT22;27407;24.142;-110.310;2023-06-05T05:46:55;21.80;99.90
41722;DHT22;27407;24.142;-110.310;2023-06-05T05:49:22;21.60;99.90
41722;DHT22;27407;24.142;-110.310;2023-06-05T05:51:50;21.70;99.90
41722;DHT22;27407;24.142;-110.310;2023-06-05T05:54:16;21.60;99.90
41722;DHT22;27407;24.142;-110.310;2023-06-05T05:56:43;21.70;99.90
41722;DHT22;27407;24.142;-110.310;2023-06-05T05:59:10;21.60;99.90
41722;DHT22;27407;24.142;-110.310;2023-06-05T06:01:36;21.60;99.90
41722;DHT22;27407;24.142;-110.310;2023-06-05T06:04:04;21.50;99.90
41722;DHT22;27407;24.142;-110.310;2023-06-05T06:06:31;21.20;99.90
41722;DHT22;27407;24.142;-110.310;2023-06-05T06:08:59;21.30;99.90
41722;DHT22;27407;24.142;-110.310;2023-06-05T06:11:27;21.20;99.90
41722;DHT22;27407;24.142;-110.310;2023-06-05T06:13:54;21.20;99.90
41722;DHT22;27407;24.142;-110.310;2023-06-05T06:16:21;21.10;99.90
41722;DHT22;27407;24.142;-110.310;2023-06-05T06:18:47;21.10;99.90
41722;DHT22;27407;24.142;-110.310;2023-06-05T06:21:14;21.10;99.90
41722;DHT22;27407;24.142;-110.310;2023-06-05T06:23:41;21.00;99.90
41722;DHT22;27407;24.142;-110.310;2023-06-05T06:26:10;20.90;99.90
41722;DHT22;27407;24.142;-110.310;2023-06-05T06:28:37;20.80;99.90
41722;DHT22;27407;24.142;-110.310;2023-06-05T06:31:04;20.70;99.90
41722;DHT22;27407;24.142;-110.310;2023-06-05T06:33:31;20.70;99.90
41722;DHT22;27407;24.142;-110.310;2023-06-05T06:35:58;20.50;99.90
41722;DHT22;27407;24.142;-110.310;2023-06-05T06:38:39;20.40;99.90
41722;DHT22;27407;24.142;-110.310;2023-06-05T06:41:06;20.10;99.90
41722;DHT22;27407;24.142;-110.310;2023-06-05T06:43:33;20.00;99.90
41722;DHT22;27407;24.142;-110.310;2023-06-05T06:45:59;20.10;99.90
41722;DHT22;27407;24.142;-110.310;2023-06-05T06:48:26;19.90;99.90
41722;DHT22;27407;24.142;-110.310;2023-06-05T06:50:53;19.90;99.90
41722;DHT22;27407;24.142;-110.310;2023-06-05T06:53:19;19.90;99.90
41722;DHT22;27407;24.142;-110.310;2023-06-05T06:55:46;20.00;99.90
41722;DHT22;27407;24.142;-110.310;2023-06-05T06:58:13;20.00;99.90
41722;DHT22;27407;24.142;-110.310;2023-06-05T07:00:39;19.90;99.90
41722;DHT22;27407;24.142;-110.310;2023-06-05T07:03:06;19.80;99.90
41722;DHT22;27407;24.142;-110.310;2023-06-05T07:05:33;19.70;99.90
41722;DHT22;27407;24.142;-110.310;2023-06-05T07:08:00;19.70;99.90
41722;DHT22;27407;24.142;-110.310;2023-06-05T07:10:28;19.60;99.90
41722;DHT22;27407;24.142;-110.310;2023-06-05T07:12:55;19.60;99.90
41722;DHT22;27407;24.142;-110.310;2023-06-05T07:15:22;19.60;99.90
41722;DHT22;27407;24.142;-110.310;2023-06-05T07:17:49;19.60;99.90
41722;DHT22;27407;24.142;-110.310;2023-06-05T07:20:16;19.80;99.90
41722;DHT22;27407;24.142;-110.310;2023-06-05T07:22:43;19.80;99.90
41722;DHT22;27407;24.142;-110.310;2023-06-05T07:25:13;19.80;99.90
41722;DHT22;27407;24.142;-110.310;2023-06-05T07:27:43;19.80;99.90
41722;DHT22;27407;24.142;-110.310;2023-06-05T07:30:10;19.70;99.90
41722;DHT22;27407;24.142;-110.310;2023-06-05T07:32:38;19.70;99.90
41722;DHT22;27407;24.142;-110.310;2023-06-05T07:35:07;19.70;99.90
41722;DHT22;27407;24.142;-110.310;2023-06-05T07:37:33;19.60;99.90
41722;DHT22;27407;24.142;-110.310;2023-06-05T07:40:00;19.70;99.90
41722;DHT22;27407;24.142;-110.310;2023-06-05T07:42:27;19.70;99.90
41722;DHT22;27407;24.142;-110.310;2023-06-05T07:44:54;19.60;99.90
41722;DHT22;27407;24.142;-110.310;2023-06-05T07:47:20;19.50;99.90
41722;DHT22;27407;24.142;-110.310;2023-06-05T07:49:57;19.60;99.90
41722;DHT22;27407;24.142;-110.310;2023-06-05T07:52:26;19.70;99.90
41722;DHT22;27407;24.142;-110.310;2023-06-05T07:54:53;19.70;99.90
41722;DHT22;27407;24.142;-110.310;2023-06-05T07:57:20;19.60;99.90
41722;DHT22;27407;24.142;-110.310;2023-06-05T07:59:47;19.60;99.90
41722;DHT22;27407;24.142;-110.310;2023-06-05T08:02:15;19.60;99.90
41722;DHT22;27407;24.142;-110.310;2023-06-05T08:04:42;19.50;99.90
41722;DHT22;27407;24.142;-110.310;2023-06-05T08:07:09;19.50;99.90
41722;DHT22;27407;24.142;-110.310;2023-06-05T08:09:36;19.40;99.90
41722;DHT22;27407;24.142;-110.310;2023-06-05T08:12:03;19.40;99.90
41722;DHT22;27407;24.142;-110.310;2023-06-05T08:14:30;19.40;99.90
41722;DHT22;27407;24.142;-110.310;2023-06-05T08:16:57;19.40;99.90
41722;DHT22;27407;24.142;-110.310;2023-06-05T08:19:24;19.30;99.90
41722;DHT22;27407;24.142;-110.310;2023-06-05T08:21:53;19.30;99.90
41722;DHT22;27407;24.142;-110.310;2023-06-05T08:24:23;19.20;99.90
41722;DHT22;27407;24.142;-110.310;2023-06-05T08:26:50;19.20;99.90
41722;DHT22;27407;24.142;-110.310;2023-06-05T08:29:17;19.00;99.90
41722;DHT22;27407;24.142;-110.310;2023-06-05T08:31:43;18.90;99.90
41722;DHT22;27407;24.142;-110.310;2023-06-05T08:34:10;18.90;99.90
41722;DHT22;27407;24.142;-110.310;2023-06-05T08:36:37;18.80;99.90
41722;DHT22;27407;24.142;-110.310;2023-06-05T08:39:04;18.70;99.90
41722;DHT22;27407;24.142;-110.310;2023-06-05T08:41:30;18.60;99.90
41722;DHT22;27407;24.142;-110.310;2023-06-05T08:43:58;18.80;99.90
41722;DHT22;27407;24.142;-110.310;2023-06-05T08:46:28;18.70;99.90
41722;DHT22;27407;24.142;-110.310;2023-06-05T08:48:57;18.70;99.90
41722;DHT22;27407;24.142;-110.310;2023-06-05T08:51:24;18.50;99.90
41722;DHT22;27407;24.142;-110.310;2023-06-05T08:54:00;18.50;99.90
41722;DHT22;27407;24.142;-110.310;2023-06-05T08:56:35;18.70;99.90
41722;DHT22;27407;24.142;-110.310;2023-06-05T08:59:04;18.60;99.90
41722;DHT22;27407;24.142;-110.310;2023-06-05T09:01:31;18.30;99.90
41722;DHT22;27407;24.142;-110.310;2023-06-05T09:04:01;18.20;99.90
41722;DHT22;27407;24.142;-110.310;2023-06-05T09:06:28;18.10;99.90
41722;DHT22;27407;24.142;-110.310;2023-06-05T09:08:55;18.10;99.90
41722;DHT22;27407;24.142;-110.310;2023-06-05T09:11:28;18.00;99.90
41722;DHT22;27407;24.142;-110.310;2023-06-05T09:13:57;18.20;99.90
41722;DHT22;27407;24.142;-110.310;2023-06-05T09:16:35;18.20;99.90
41722;DHT22;27407;24.142;-110.310;2023-06-05T09:19:04;18.10;99.90
41722;DHT22;27407;24.142;-110.310;2023-06-05T09:21:31;18.20;99.90
41722;DHT22;27407;24.142;-110.310;2023-06-05T09:24:17;18.20;99.90
41722;DHT22;27407;24.142;-110.310;2023-06-05T09:26:56;18.10;99.90
41722;DHT22;27407;24.142;-110.310;2023-06-05T09:29:23;18.00;99.90
41722;DHT22;27407;24.142;-110.310;2023-06-05T09:31:52;17.90;99.90
41722;DHT22;27407;24.142;-110.310;2023-06-05T09:37:10;17.80;99.90
41722;DHT22;27407;24.142;-110.310;2023-06-05T09:39:41;17.60;99.90
41722;DHT22;27407;24.142;-110.310;2023-06-05T09:42:09;17.50;99.90
41722;DHT22;27407;24.142;-110.310;2023-06-05T09:44:36;17.60;99.90
41722;DHT22;27407;24.142;-110.310;2023-06-05T09:47:03;17.50;99.90
41722;DHT22;27407;24.142;-110.310;2023-06-05T09:52:09;17.40;99.90
41722;DHT22;27407;24.142;-110.310;2023-06-05T09:54:38;17.60;99.90
41722;DHT22;27407;24.142;-110.310;2023-06-05T09:57:07;17.60;99.90
41722;DHT22;27407;24.142;-110.310;2023-06-05T09:59:46;17.40;99.90
41722;DHT22;27407;24.142;-110.310;2023-06-05T10:02:14;17.40;99.90
41722;DHT22;27407;24.142;-110.310;2023-06-05T10:04:49;17.30;99.90
41722;DHT22;27407;24.142;-110.310;2023-06-05T10:07:18;17.30;99.90
41722;DHT22;27407;24.142;-110.310;2023-06-05T10:09:46;17.40;99.90
41722;DHT22;27407;24.142;-110.310;2023-06-05T10:12:16;17.30;99.90
41722;DHT22;27407;24.142;-110.310;2023-06-05T10:14:43;17.30;99.90
41722;DHT22;27407;24.142;-110.310;2023-06-05T10:17:13;17.30;99.90
41722;DHT22;27407;24.142;-110.310;2023-06-05T10:19:44;17.30;99.90
41722;DHT22;27407;24.142;-110.310;2023-06-05T10:22:11;17.30;99.90
41722;DHT22;27407;24.142;-110.310;2023-06-05T10:25:00;17.30;99.90
41722;DHT22;27407;24.142;-110.310;2023-06-05T10:30:54;17.30;99.90
41722;DHT22;27407;24.142;-110.310;2023-06-05T10:38:45;17.10;99.90
41722;DHT22;27407;24.142;-110.310;2023-06-05T10:41:12;17.20;99.90
41722;DHT22;27407;24.142;-110.310;2023-06-05T10:43:51;17.20;99.90
41722;DHT22;27407;24.142;-110.310;2023-06-05T10:51:34;17.10;99.90
41722;DHT22;27407;24.142;-110.310;2023-06-05T10:57:03;17.00;99.90
41722;DHT22;27407;24.142;-110.310;2023-06-05T10:59:33;17.00;99.90
41722;DHT22;27407;24.142;-110.310;2023-06-05T11:15:09;16.90;99.90
41722;DHT22;27407;24.142;-110.310;2023-06-05T11:17:40;17.00;99.90
41722;DHT22;27407;24.142;-110.310;2023-06-05T11:20:09;16.90;99.90
41722;DHT22;27407;24.142;-110.310;2023-06-05T11:27:56;16.80;99.90
41722;DHT22;27407;24.142;-110.310;2023-06-05T11:30:27;16.80;99.90
41722;DHT22;27407;24.142;-110.310;2023-06-05T11:33:06;16.70;99.90
41722;DHT22;27407;24.142;-110.310;2023-06-05T11:35:35;16.70;99.90
41722;DHT22;27407;24.142;-110.310;2023-06-05T11:38:31;16.70;99.90
41722;DHT22;27407;24.142;-110.310;2023-06-05T11:40:58;16.60;99.90
41722;DHT22;27407;24.142;-110.310;2023-06-05T11:43:25;16.70;99.90
41722;DHT22;27407;24.142;-110.310;2023-06-05T11:45:56;16.60;99.90
41722;DHT22;27407;24.142;-110.310;2023-06-05T11:48:24;16.50;99.90
41722;DHT22;27407;24.142;-110.310;2023-06-05T11:51:03;16.50;99.90
41722;DHT22;27407;24.142;-110.310;2023-06-05T11:53:32;16.60;99.90
41722;DHT22;27407;24.142;-110.310;2023-06-05T11:55:59;16.70;99.90
41722;DHT22;27407;24.142;-110.310;2023-06-05T11:58:38;16.80;99.90
41722;DHT22;27407;24.142;-110.310;2023-06-05T12:01:12;16.90;99.90
41722;DHT22;27407;24.142;-110.310;2023-06-05T12:03:42;16.70;99.90
41722;DHT22;27407;24.142;-110.310;2023-06-05T12:06:09;16.60;99.90
41722;DHT22;27407;24.142;-110.310;2023-06-05T12:08:40;16.40;99.90
41722;DHT22;27407;24.142;-110.310;2023-06-05T12:11:25;16.60;99.90
41722;DHT22;27407;24.142;-110.310;2023-06-05T12:13:54;16.70;99.90
41722;DHT22;27407;24.142;-110.310;2023-06-05T12:16:36;16.90;99.90
41722;DHT22;27407;24.142;-110.310;2023-06-05T12:19:11;16.80;99.90
41722;DHT22;27407;24.142;-110.310;2023-06-05T12:21:38;16.70;99.90
41722;DHT22;27407;24.142;-110.310;2023-06-05T12:24:06;16.60;99.90
41722;DHT22;27407;24.142;-110.310;2023-06-05T12:27:08;16.50;99.90
41722;DHT22;27407;24.142;-110.310;2023-06-05T12:29:37;16.60;99.90
41722;DHT22;27407;24.142;-110.310;2023-06-05T12:32:23;16.70;99.90
41722;DHT22;27407;24.142;-110.310;2023-06-05T12:34:51;16.70;99.90
41722;DHT22;27407;24.142;-110.310;2023-06-05T12:37:25;16.70;99.90
41722;DHT22;27407;24.142;-110.310;2023-06-05T12:39:58;16.60;99.90
41722;DHT22;27407;24.142;-110.310;2023-06-05T12:42:26;16.50;99.90
41722;DHT22;27407;24.142;-110.310;2023-06-05T12:44:53;16.60;99.90
41722;DHT22;27407;24.142;-110.310;2023-06-05T12:47:34;16.60;99.90
41722;DHT22;27407;24.142;-110.310;2023-06-05T12:50:04;16.50;99.90
41722;DHT22;27407;24.142;-110.310;2023-06-05T12:52:41;16.50;99.90
41722;DHT22;27407;24.142;-110.310;2023-06-05T12:55:08;16.50;99.90
41722;DHT22;27407;24.142;-110.310;2023-06-05T12:57:35;16.50;99.90
41722;DHT22;27407;24.142;-110.310;2023-06-05T13:00:06;16.50;99.90
41722;DHT22;27407;24.142;-110.310;2023-06-05T13:02:43;16.60;99.90
41722;DHT22;27407;24.142;-110.310;2023-06-05T13:05:11;16.90;99.90
41722;DHT22;27407;24.142;-110.310;2023-06-05T13:07:38;16.90;99.90
41722;DHT22;27407;24.142;-110.310;2023-06-05T13:10:08;16.70;99.90
41722;DHT22;27407;24.142;-110.310;2023-06-05T13:12:37;16.70;99.90
41722;DHT22;27407;24.142;-110.310;2023-06-05T13:15:09;16.90;99.90
41722;DHT22;27407;24.142;-110.310;2023-06-05T13:17:37;17.00;99.90
41722;DHT22;27407;24.142;-110.310;2023-06-05T13:20:05;16.90;99.90
41722;DHT22;27407;24.142;-110.310;2023-06-05T13:22:38;17.10;99.90
41722;DHT22;27407;24.142;-110.310;2023-06-05T13:25:07;17.20;99.90
41722;DHT22;27407;24.142;-110.310;2023-06-05T13:27:34;17.00;99.90
41722;DHT22;27407;24.142;-110.310;2023-06-05T13:30:01;17.10;99.90
41722;DHT22;27407;24.142;-110.310;2023-06-05T13:32:35;17.30;99.90
41722;DHT22;27407;24.142;-110.310;2023-06-05T13:35:06;17.40;99.90
41722;DHT22;27407;24.142;-110.310;2023-06-05T13:37:34;17.40;99.90
41722;DHT22;27407;24.142;-110.310;2023-06-05T13:40:01;17.60;99.90
41722;DHT22;27407;24.142;-110.310;2023-06-05T13:42:30;17.80;99.90
41722;DHT22;27407;24.142;-110.310;2023-06-05T13:44:57;17.90;99.90
41722;DHT22;27407;24.142;-110.310;2023-06-05T13:47:25;17.80;99.90
41722;DHT22;27407;24.142;-110.310;2023-06-05T13:49:52;17.90;99.90
41722;DHT22;27407;24.142;-110.310;2023-06-05T13:52:36;17.90;99.90
41722;DHT22;27407;24.142;-110.310;2023-06-05T13:55:08;18.10;99.90
41722;DHT22;27407;24.142;-110.310;2023-06-05T13:57:35;18.10;99.90
41722;DHT22;27407;24.142;-110.310;2023-06-05T14:00:02;18.30;99.90
41722;DHT22;27407;24.142;-110.310;2023-06-05T14:02:31;18.40;99.90
41722;DHT22;27407;24.142;-110.310;2023-06-05T14:04:58;18.40;99.90
41722;DHT22;27407;24.142;-110.310;2023-06-05T14:07:25;18.60;99.90
41722;DHT22;27407;24.142;-110.310;2023-06-05T14:09:52;18.70;99.90
41722;DHT22;27407;24.142;-110.310;2023-06-05T14:12:20;18.80;99.90
41722;DHT22;27407;24.142;-110.310;2023-06-05T14:14:47;19.00;99.90
41722;DHT22;27407;24.142;-110.310;2023-06-05T14:17:25;19.10;99.90
41722;DHT22;27407;24.142;-110.310;2023-06-05T14:19:58;19.30;99.90
41722;DHT22;27407;24.142;-110.310;2023-06-05T14:22:25;19.30;99.90
41722;DHT22;27407;24.142;-110.310;2023-06-05T14:25:08;19.30;99.90
41722;DHT22;27407;24.142;-110.310;2023-06-05T14:27:37;19.50;99.90
41722;DHT22;27407;24.142;-110.310;2023-06-05T14:30:04;19.70;99.90
41722;DHT22;27407;24.142;-110.310;2023-06-05T14:32:31;19.50;99.90
41722;DHT22;27407;24.142;-110.310;2023-06-05T14:34:57;19.60;99.90
41722;DHT22;27407;24.142;-110.310;2023-06-05T14:37:24;20.00;99.90
41722;DHT22;27407;24.142;-110.310;2023-06-05T14:39:53;20.10;99.90
41722;DHT22;27407;24.142;-110.310;2023-06-05T14:42:26;20.10;99.90
41722;DHT22;27407;24.142;-110.310;2023-06-05T14:44:53;20.40;99.90
41722;DHT22;27407;24.142;-110.310;2023-06-05T14:47:20;20.50;99.90
41722;DHT22;27407;24.142;-110.310;2023-06-05T14:49:49;20.50;99.90
41722;DHT22;27407;24.142;-110.310;2023-06-05T14:52:24;20.60;99.90
41722;DHT22;27407;24.142;-110.310;2023-06-05T14:54:53;20.70;99.90
41722;DHT22;27407;24.142;-110.310;2023-06-05T14:57:19;20.80;99.90
41722;DHT22;27407;24.142;-110.310;2023-06-05T14:59:46;20.80;99.90
41722;DHT22;27407;24.142;-110.310;2023-06-05T15:02:13;20.90;99.90
41722;DHT22;27407;24.142;-110.310;2023-06-05T15:04:40;21.20;99.90
41722;DHT22;27407;24.142;-110.310;2023-06-05T15:07:07;21.30;99.90
41722;DHT22;27407;24.142;-110.310;2023-06-05T15:09:34;21.40;99.90
41722;DHT22;27407;24.142;-110.310;2023-06-05T15:12:01;21.50;99.90
41722;DHT22;27407;24.142;-110.310;2023-06-05T15:14:28;21.60;99.90
41722;DHT22;27407;24.142;-110.310;2023-06-05T15:17:14;21.70;99.90
41722;DHT22;27407;24.142;-110.310;2023-06-05T15:19:46;21.80;99.90
41722;DHT22;27407;24.142;-110.310;2023-06-05T15:22:22;21.90;99.90
41722;DHT22;27407;24.142;-110.310;2023-06-05T15:24:49;22.00;99.90
41722;DHT22;27407;24.142;-110.310;2023-06-05T15:27:16;22.30;99.90
41722;DHT22;27407;24.142;-110.310;2023-06-05T15:29:42;22.60;99.90
41722;DHT22;27407;24.142;-110.310;2023-06-05T15:32:09;22.90;99.90
41722;DHT22;27407;24.142;-110.310;2023-06-05T15:34:36;23.10;99.90
41722;DHT22;27407;24.142;-110.310;2023-06-05T15:37:09;23.20;99.90
41722;DHT22;27407;24.142;-110.310;2023-06-05T15:39:36;23.10;99.90
41722;DHT22;27407;24.142;-110.310;2023-06-05T15:42:04;23.10;99.90
41722;DHT22;27407;24.142;-110.310;2023-06-05T15:44:32;23.20;99.90